Time;durP1;ratioP1;P1;durP2;ratioP2;P2;SDS_P1;SDS_P2;PMS_P1;PMS_P2;Temp;Humidity;BMP_temperature;BMP_pressure;BME280_temperature;BME280_humidity;BME280_pressure;Samples;Min_cycle;Max_cycle;Signal;HPM_P1;HPM_P2
2022/03/17 00:00:39;;;;;;;28.75;17.42;;;;;;;7.68;98.34;101622.88;5265773;28;20048;-76
2022/03/17 00:03:09;;;;;;;29.13;17.33;;;;;;;7.66;97.80;101624.63;5248088;28;20628;-77
2022/03/17 00:05:39;;;;;;;29.80;17.60;;;;;;;7.62;98.92;101622.06;5259529;28;20024;-76
2022/03/17 00:08:10;;;;;;;33.75;18.58;;;;;;;7.58;99.51;101631.63;5258879;28;20027;-76
2022/03/17 00:10:40;;;;;;;34.38;18.20;;;;;;;7.59;99.20;101641.16;5244559;28;20029;-76
2022/03/17 00:13:11;;;;;;;32.40;17.67;;;;;;;7.55;100.00;101636.84;5244549;28;20016;-76
2022/03/17 00:15:41;;;;;;;31.88;17.77;;;;;;;7.52;100.00;101634.25;5247159;28;20024;-77
2022/03/17 00:18:12;;;;;;;33.47;19.05;;;;;;;7.48;100.00;101631.69;5265364;28;20038;-77
2022/03/17 00:20:42;;;;;;;29.55;16.45;;;;;;;7.41;100.00;101622.19;5265474;28;20035;-77
2022/03/17 00:23:12;;;;;;;35.20;19.17;;;;;;;7.34;100.00;101617.94;5245789;28;20044;-77
2022/03/17 00:25:42;;;;;;;39.60;19.95;;;;;;;7.38;100.00;101627.44;5226733;28;20418;-77
2022/03/17 00:28:13;;;;;;;32.38;19.05;;;;;;;7.37;100.00;101629.16;5244496;28;20032;-77
2022/03/17 00:30:43;;;;;;;32.15;18.05;;;;;;;7.36;100.00;101624.81;5244364;28;20063;-77
2022/03/17 00:33:14;;;;;;;33.50;19.23;;;;;;;7.35;100.00;101617.88;5244309;28;20036;-77
2022/03/17 00:35:44;;;;;;;34.60;19.52;;;;;;;7.33;100.00;101622.25;5244466;28;20116;-76
2022/03/17 00:38:17;;;;;;;39.08;20.90;;;;;;;7.37;100.00;101625.69;5255181;28;20024;-77
2022/03/17 00:40:47;;;;;;;34.28;20.05;;;;;;;7.38;100.00;101620.47;5265066;28;20036;-77
2022/03/17 00:43:18;;;;;;;35.92;20.77;;;;;;;7.39;100.00;101631.75;5264890;28;20093;-76
2022/03/17 00:45:48;;;;;;;31.77;19.85;;;;;;;7.38;100.00;101632.63;5261146;28;20040;-77
2022/03/17 00:48:19;;;;;;;35.63;19.88;;;;;;;7.37;100.00;101621.34;5247480;28;20031;-77
2022/03/17 00:50:49;;;;;;;40.92;21.25;;;;;;;7.34;100.00;101620.53;5260922;28;20516;-77
2022/03/17 00:53:19;;;;;;;36.53;19.95;;;;;;;7.36;100.00;101611.81;5243794;28;20035;-76
2022/03/17 00:55:50;;;;;;;36.30;20.10;;;;;;;7.31;100.00;101618.78;5243739;28;20025;-76
2022/03/17 00:58:20;;;;;;;37.05;20.90;;;;;;;7.25;100.00;101607.56;5243511;28;20029;-76
2022/03/17 01:00:50;;;;;;;40.05;21.30;;;;;;;7.15;100.00;101605.91;5243311;28;20062;-76
2022/03/17 01:03:20;;;;;;;38.58;21.25;;;;;;;7.17;100.00;101614.56;5243315;28;20087;-76
2022/03/17 01:05:52;;;;;;;38.60;20.80;;;;;;;7.14;100.00;101601.53;5243449;28;20024;-76
2022/03/17 01:08:22;;;;;;;39.08;21.75;;;;;;;7.19;100.00;101599.81;5243288;28;20043;-76
2022/03/17 01:10:53;;;;;;;36.40;21.17;;;;;;;7.22;100.00;101590.22;5243068;28;20020;-77
2022/03/17 01:13:23;;;;;;;36.72;21.08;;;;;;;7.24;100.00;101598.03;5243078;28;20036;-76
2022/03/17 01:15:53;;;;;;;38.70;21.17;;;;;;;7.28;100.00;101599.72;5247104;28;20093;-77
2022/03/17 01:18:24;;;;;;;41.22;21.67;;;;;;;7.28;100.00;101593.69;5243366;28;20512;-77
2022/03/17 01:20:54;;;;;;;38.70;20.80;;;;;;;7.23;100.00;101593.72;5243288;28;20411;-77
2022/03/17 01:23:25;;;;;;;39.25;21.70;;;;;;;7.16;100.00;101593.75;5255851;28;20111;-77
2022/03/17 01:25:55;;;;;;;37.17;20.88;;;;;;;7.15;100.00;101599.81;5243226;28;20050;-77
2022/03/17 01:28:25;;;;;;;37.42;21.60;;;;;;;7.15;100.00;101592.91;5243598;28;20596;-77
2022/03/17 01:30:56;;;;;;;41.80;21.48;;;;;;;7.21;100.00;101577.25;5250839;28;20028;-77
2022/03/17 01:33:26;;;;;;;35.85;21.63;;;;;;;7.16;100.00;101598.94;5242952;28;20025;-77
2022/03/17 01:35:56;;;;;;;36.55;21.63;;;;;;;7.14;100.00;101596.34;5243325;28;20537;-77
2022/03/17 01:38:26;;;;;;;43.13;20.92;;;;;;;7.22;100.00;101585.03;5263957;28;20104;-76
2022/03/17 01:40:57;;;;;;;37.13;21.08;;;;;;;7.19;100.00;101573.81;5245442;28;20028;-77
2022/03/17 01:43:27;;;;;;;38.05;22.38;;;;;;;7.18;100.00;101581.59;5261103;28;20032;-76
2022/03/17 01:45:57;;;;;;;34.47;20.67;;;;;;;7.19;100.00;101596.31;5276301;28;20024;-77
2022/03/17 01:48:27;;;;;;;37.28;20.65;;;;;;;7.24;100.00;101587.63;5262672;28;20491;-76
2022/03/17 01:50:58;;;;;;;37.50;21.40;;;;;;;7.20;100.00;101577.25;5247404;28;20022;-77
2022/03/17 01:53:28;;;;;;;39.58;21.58;;;;;;;7.22;100.00;101578.09;5258260;28;20035;-77
2022/03/17 01:56:00;;;;;;;36.85;21.40;;;;;;;7.11;100.00;101572.13;5259995;28;20421;-76
2022/03/17 01:58:31;;;;;;;37.13;22.08;;;;;;;7.09;100.00;101581.69;5262352;28;20054;-77
2022/03/17 02:01:02;;;;;;;37.80;21.98;;;;;;;7.05;100.00;101585.13;5251991;28;20107;-76
2022/03/17 02:03:33;;;;;;;40.65;22.13;;;;;;;7.08;100.00;101577.34;5250659;28;20103;-77
2022/03/17 02:06:03;;;;;;;38.70;22.30;;;;;;;7.08;100.00;101586.00;5253340;28;20052;-77
2022/03/17 02:08:33;;;;;;;40.47;22.42;;;;;;;7.04;100.00;101586.00;5255820;28;20069;-77
2022/03/17 02:13:52;;;;;;;36.95;21.40;;;;;;;7.02;100.00;101580.84;5252325;28;20052;-76
2022/03/17 02:16:22;;;;;;;36.15;21.65;;;;;;;7.06;100.00;101585.13;5228884;28;20024;-76
2022/03/17 02:18:53;;;;;;;40.15;21.90;;;;;;;7.13;100.00;101583.38;5259500;28;20032;-76
2022/03/17 02:21:23;;;;;;;37.28;20.70;;;;;;;7.20;100.00;101579.84;5267665;28;20036;-76
2022/03/17 02:26:42;;;;;;;37.03;21.98;;;;;;;7.14;100.00;101580.75;5267435;28;20030;-76
2022/03/17 02:29:13;;;;;;;39.80;22.23;;;;;;;7.15;100.00;101587.72;5267184;28;20025;-76
2022/03/17 02:31:44;;;;;;;39.33;21.75;;;;;;;7.10;100.00;101589.44;5266622;28;20042;-76
2022/03/17 02:34:18;;;;;;;38.67;22.02;;;;;;;7.06;100.00;101599.84;5251384;28;20478;-77
2022/03/17 02:36:50;;;;;;;39.65;22.25;;;;;;;6.98;100.00;101599.94;5246782;28;20032;-77
2022/03/17 02:39:24;;;;;;;40.13;23.20;;;;;;;6.81;100.00;101593.06;5246616;28;20082;-77
2022/03/17 02:41:55;;;;;;;41.20;23.67;;;;;;;6.74;100.00;101591.38;5246407;28;20112;-77
2022/03/17 02:44:25;;;;;;;41.05;24.08;;;;;;;6.62;100.00;101591.41;5267975;22;20543;-77
2022/03/17 02:46:55;;;;;;;43.38;24.25;;;;;;;6.56;100.00;101586.25;5265438;28;20036;-77
2022/03/17 02:49:26;;;;;;;45.10;24.02;;;;;;;6.46;100.00;101571.53;5283166;28;20077;-77
2022/03/17 02:51:56;;;;;;;45.25;23.80;;;;;;;6.43;100.00;101563.78;5289741;28;20074;-77
2022/03/17 02:54:27;;;;;;;42.95;24.35;;;;;;;6.46;100.00;101563.75;5282625;28;20039;-77
2022/03/17 02:56:57;;;;;;;42.35;23.38;;;;;;;6.48;100.00;101569.81;5267756;28;20019;-77
2022/03/17 02:59:27;;;;;;;40.40;22.83;;;;;;;6.50;100.00;101558.56;5285760;28;20028;-76
2022/03/17 03:01:57;;;;;;;45.30;24.33;;;;;;;6.57;100.00;101565.44;5261207;28;20027;-77
2022/03/17 03:04:28;;;;;;;41.88;24.40;;;;;;;6.57;100.00;101560.25;5281206;28;20027;-77
2022/03/17 03:06:59;;;;;;;45.13;24.08;;;;;;;6.50;100.00;101557.69;5252869;28;20068;-76
2022/03/17 03:09:30;;;;;;;45.28;24.67;;;;;;;6.55;100.00;101558.50;5273866;28;20032;-76
2022/03/17 03:12:00;;;;;;;42.60;23.52;;;;;;;6.57;100.00;101560.25;5278895;28;20111;-77
2022/03/17 03:14:31;;;;;;;42.45;24.00;;;;;;;6.68;100.00;101560.19;5281828;28;20085;-77
2022/03/17 03:17:01;;;;;;;43.60;23.70;;;;;;;6.71;100.00;101548.06;5266492;28;20054;-76
2022/03/17 03:19:32;;;;;;;40.85;22.80;;;;;;;6.81;100.00;101541.97;5262429;28;20221;-77
2022/03/17 03:22:02;;;;;;;41.42;22.90;;;;;;;6.87;100.00;101543.66;5283736;28;20036;-77
2022/03/17 03:24:33;;;;;;;41.85;23.15;;;;;;;6.97;100.00;101545.34;5260471;28;20043;-77
2022/03/17 03:27:05;;;;;;;40.13;22.13;;;;;;;6.97;100.00;101545.34;5280767;28;20448;-78
2022/03/17 03:29:35;;;;;;;41.53;23.10;;;;;;;6.93;100.00;101526.31;5277260;28;20064;-78
2022/03/17 03:32:06;;;;;;;40.42;23.00;;;;;;;6.89;100.00;101531.50;5278154;28;20043;-78
2022/03/17 03:34:36;;;;;;;42.72;23.45;;;;;;;6.94;100.00;101534.97;5281798;28;20032;-78
2022/03/17 03:37:25;;;;;;;43.85;23.65;;;;;;;6.93;100.00;101538.44;5271006;28;20397;-78
2022/03/17 03:39:57;;;;;;;42.75;23.70;;;;;;;6.96;100.00;101548.81;5272323;28;20077;-78
2022/03/17 03:42:27;;;;;;;45.67;23.88;;;;;;;6.88;100.00;101537.59;5282176;28;20080;-79
2022/03/17 03:44:58;;;;;;;42.95;23.45;;;;;;;6.91;100.00;101532.41;5281062;28;20023;-77
2022/03/17 03:47:28;;;;;;;41.58;23.83;;;;;;;6.97;100.00;101537.56;5279346;28;20154;-78
2022/03/17 03:49:58;;;;;;;41.67;23.17;;;;;;;6.99;100.00;101533.19;5260138;28;20512;-79
2022/03/17 03:52:28;;;;;;;41.28;23.60;;;;;;;6.92;100.00;101526.34;5271447;28;20035;-78
2022/03/17 03:54:59;;;;;;;40.08;24.10;;;;;;;6.91;100.00;101533.25;5274381;28;20042;-79
2022/03/17 03:57:29;;;;;;;44.05;25.20;;;;;;;6.94;100.00;101537.56;5268576;28;20144;-78
2022/03/17 03:59:59;;;;;;;41.72;23.48;;;;;;;7.00;100.00;101534.94;5286093;28;20020;-79
2022/03/17 04:02:29;;;;;;;41.15;24.02;;;;;;;7.00;100.00;101550.53;5274314;28;20523;-78
2022/03/17 04:05:00;;;;;;;50.28;24.40;;;;;;;7.01;100.00;101536.66;5287975;28;20034;-78
2022/03/17 04:07:30;;;;;;;41.03;23.40;;;;;;;7.00;100.00;101534.94;5282732;28;20035;-78
2022/03/17 04:10:00;;;;;;;42.58;24.65;;;;;;;6.92;100.00;101532.38;5268664;28;20125;-78
2022/03/17 04:12:30;;;;;;;44.33;25.35;;;;;;;6.90;100.00;101539.31;5266372;28;20038;-78
2022/03/17 04:15:01;;;;;;;46.75;25.92;;;;;;;6.92;100.00;101542.75;5282033;28;20031;-78
2022/03/17 04:17:31;;;;;;;47.97;25.15;;;;;;;6.86;100.00;101535.00;5282929;28;20035;-78
2022/03/17 04:20:01;;;;;;;41.70;24.48;;;;;;;6.86;100.00;101532.41;5262595;28;20039;-78
2022/03/17 04:22:32;;;;;;;45.13;23.95;;;;;;;6.89;100.00;101536.72;5277015;28;20181;-78
2022/03/17 04:25:02;;;;;;;47.65;24.50;;;;;;;6.91;100.00;101535.00;5272554;28;20038;-78
2022/03/17 04:27:33;;;;;;;45.28;24.30;;;;;;;6.87;100.00;101536.75;5286480;28;20038;-78
2022/03/17 04:30:04;;;;;;;43.00;25.30;;;;;;;6.84;100.00;101543.69;5279215;28;20035;-79
2022/03/17 04:32:34;;;;;;;45.47;25.20;;;;;;;6.83;100.00;101541.94;5255129;28;20020;-78
2022/03/17 04:35:06;;;;;;;45.65;26.02;;;;;;;6.87;100.00;101546.25;5283791;28;20054;-78
2022/03/17 04:37:37;;;;;;;43.90;25.17;;;;;;;6.82;100.00;101545.41;5286067;28;20050;-76
2022/03/17 04:40:08;;;;;;;46.03;25.75;;;;;;;6.79;100.00;101535.06;5284067;28;20019;-75
2022/03/17 04:42:38;;;;;;;45.75;25.95;;;;;;;6.81;100.00;101530.72;5289446;28;20023;-78
2022/03/17 04:45:08;;;;;;;48.35;26.48;;;;;;;6.81;100.00;101543.69;5258365;28;20430;-78
2022/03/17 04:47:39;;;;;;;46.47;25.60;;;;;;;6.83;100.00;101541.94;5281289;28;20028;-78
2022/03/17 04:50:09;;;;;;;44.08;26.00;;;;;;;6.86;100.00;101536.72;5281900;28;20081;-78
2022/03/17 04:55:29;;;;;;;44.13;24.15;;;;;;;6.80;100.00;101532.44;5280542;28;20034;-76
2022/03/17 04:57:59;;;;;;;46.50;25.88;;;;;;;6.84;100.00;101528.09;5286937;28;20234;-77
2022/03/17 05:00:29;;;;;;;48.70;25.85;;;;;;;6.83;100.00;101531.56;5283003;28;20036;-77
2022/03/17 05:02:59;;;;;;;51.38;26.48;;;;;;;6.86;100.00;101531.53;5276003;28;20043;-77
2022/03/17 05:05:30;;;;;;;46.22;26.05;;;;;;;6.83;100.00;101531.56;5286470;28;20029;-77
2022/03/17 05:08:01;;;;;;;46.85;25.92;;;;;;;6.84;100.00;101534.16;5283397;28;20020;-76
2022/03/17 05:10:35;;;;;;;50.25;27.15;;;;;;;6.84;100.00;101523.78;5285527;28;20057;-76
2022/03/17 05:13:07;;;;;;;45.75;25.30;;;;;;;6.83;100.00;101521.16;5284531;28;20016;-77
2022/03/17 05:15:39;;;;;;;49.22;27.25;;;;;;;6.85;100.00;101516.81;5285115;28;20031;-77
2022/03/17 05:18:09;;;;;;;49.05;27.33;;;;;;;6.85;100.00;101511.63;5267023;28;20024;-78
2022/03/17 05:20:43;;;;;;;48.20;27.52;;;;;;;6.91;100.00;101517.66;5285404;28;20541;-77
2022/03/17 05:23:17;;;;;;;49.55;26.33;;;;;;;7.00;100.00;101508.94;5276450;28;20028;-76
2022/03/17 05:25:49;;;;;;;48.17;26.63;;;;;;;7.01;100.00;101510.66;5274638;28;20031;-77
2022/03/17 05:28:19;;;;;;;43.22;24.17;;;;;;;7.11;100.00;101518.41;5280943;28;20024;-77
2022/03/17 05:30:50;;;;;;;48.47;27.00;;;;;;;7.06;100.00;101516.69;5280173;28;20039;-77
2022/03/17 05:33:21;;;;;;;47.50;26.73;;;;;;;7.09;100.00;101525.34;5272482;28;20374;-79
2022/03/17 05:35:51;;;;;;;46.17;26.20;;;;;;;7.14;100.00;101528.75;5267484;28;20042;-76
2022/03/17 05:38:21;;;;;;;48.88;27.67;;;;;;;7.17;100.00;101531.38;5282154;28;20040;-77
2022/03/17 05:40:52;;;;;;;46.63;26.42;;;;;;;7.16;100.00;101531.38;5285488;28;20416;-77
2022/03/17 05:43:23;;;;;;;45.20;24.77;;;;;;;7.14;100.00;101520.97;5276635;28;20031;-76
2022/03/17 05:45:53;;;;;;;48.30;27.50;;;;;;;7.12;100.00;101530.50;5276976;28;20492;-77
2022/03/17 05:48:23;;;;;;;51.97;28.08;;;;;;;7.18;100.00;101535.69;5284957;28;20024;-76
2022/03/17 05:50:54;;;;;;;49.22;27.15;;;;;;;7.16;100.00;101528.75;5282598;28;20089;-77
2022/03/17 05:53:24;;;;;;;45.85;25.40;;;;;;;7.11;100.00;101534.00;5278233;28;20096;-76
2022/03/17 05:55:54;;;;;;;52.63;27.30;;;;;;;7.13;100.00;101534.84;5278861;28;20508;-75
2022/03/17 05:58:25;;;;;;;48.53;28.10;;;;;;;7.19;100.00;101539.13;5286024;28;20046;-77
2022/03/17 06:00:55;;;;;;;47.67;26.08;;;;;;;7.12;100.00;101533.13;5277716;28;20024;-78
2022/03/17 06:03:25;;;;;;;52.05;27.80;;;;;;;7.12;100.00;101545.25;5274481;28;20096;-77
2022/03/17 06:05:55;;;;;;;51.10;28.35;;;;;;;7.09;100.00;101550.47;5285220;28;20061;-78
2022/03/17 06:08:26;;;;;;;45.95;26.52;;;;;;;7.15;100.00;101558.22;5281358;28;20143;-76
2022/03/17 06:10:57;;;;;;;45.95;25.70;;;;;;;7.13;100.00;101549.59;5267748;28;20027;-77
2022/03/17 06:13:30;;;;;;;53.53;28.60;;;;;;;7.14;100.00;101553.91;5283764;28;20557;-78
2022/03/17 06:16:01;;;;;;;47.10;26.88;;;;;;;7.13;100.00;101555.63;5278883;28;20028;-76
2022/03/17 06:18:31;;;;;;;49.72;29.27;;;;;;;7.11;100.00;101553.94;5283811;28;20020;-77
2022/03/17 06:21:02;;;;;;;47.38;27.02;;;;;;;7.11;100.00;101551.34;5279945;28;20031;-78
2022/03/17 06:23:32;;;;;;;48.88;27.88;;;;;;;7.09;100.00;101551.31;5267197;28;20249;-78
2022/03/17 06:26:02;;;;;;;51.13;27.42;;;;;;;7.11;100.00;101553.94;5276134;28;20450;-78
2022/03/17 06:28:32;;;;;;;46.15;27.48;;;;;;;7.11;100.00;101562.56;5258356;28;20028;-78
2022/03/17 06:31:03;;;;;;;50.15;28.73;;;;;;;7.17;100.00;101562.56;5284650;28;20048;-78
2022/03/17 06:33:33;;;;;;;47.38;27.30;;;;;;;7.15;100.00;101574.72;5284973;28;20507;-78
2022/03/17 06:36:03;;;;;;;52.33;28.95;;;;;;;7.13;100.00;101575.56;5287083;28;20026;-76
2022/03/17 06:38:34;;;;;;;46.92;27.38;;;;;;;7.13;100.00;101572.97;5281930;28;20047;-79
2022/03/17 06:41:04;;;;;;;49.47;27.77;;;;;;;6.96;100.00;101574.81;5280793;28;20036;-78
2022/03/17 06:43:34;;;;;;;52.50;28.85;;;;;;;7.01;100.00;101573.03;5279117;28;20373;-78
2022/03/17 06:46:04;;;;;;;52.33;29.23;;;;;;;6.95;100.00;101573.06;5276869;28;20266;-78
2022/03/17 06:48:35;;;;;;;49.67;29.30;;;;;;;7.04;100.00;101573.91;5280921;28;20424;-78
2022/03/17 06:51:06;;;;;;;48.45;27.95;;;;;;;7.06;100.00;101582.53;5277748;28;20035;-78
2022/03/17 06:53:36;;;;;;;49.80;28.23;;;;;;;7.07;100.00;101581.66;5271795;28;20609;-78
2022/03/17 06:56:07;;;;;;;51.37;27.77;;;;;;;7.07;100.00;101579.06;5275782;28;20114;-78
2022/03/17 06:58:39;;;;;;;50.25;29.23;;;;;;;7.10;100.00;101576.44;5279713;28;20341;-78
2022/03/17 07:01:09;;;;;;;50.83;28.05;;;;;;;7.16;100.00;101575.56;5258482;28;20038;-78
2022/03/17 07:03:39;;;;;;;49.55;27.85;;;;;;;7.22;100.00;101580.72;5260114;28;20024;-78
2022/03/17 07:06:10;;;;;;;49.80;28.13;;;;;;;7.27;100.00;101581.56;5282252;28;20027;-78
2022/03/17 07:08:40;;;;;;;51.72;29.42;;;;;;;7.34;100.00;101584.97;5279497;28;20024;-79
2022/03/17 07:11:10;;;;;;;55.85;29.92;;;;;;;7.45;100.00;101577.97;5280940;28;20048;-78
2022/03/17 07:13:40;;;;;;;48.17;29.02;;;;;;;7.44;100.00;101585.75;5281403;28;20024;-78
2022/03/17 07:16:11;;;;;;;51.05;28.65;;;;;;;7.53;100.00;101583.13;5281191;28;20165;-79
2022/03/17 07:18:41;;;;;;;48.67;27.73;;;;;;;7.57;100.00;101582.22;5265399;28;20028;-79
2022/03/17 07:21:11;;;;;;;49.75;29.15;;;;;;;7.65;100.00;101591.69;5283865;28;20046;-78
2022/03/17 07:23:42;;;;;;;48.13;28.10;;;;;;;7.67;100.00;101589.94;5273303;28;20036;-79
2022/03/17 07:26:12;;;;;;;48.17;27.38;;;;;;;7.68;100.00;101591.66;5274333;28;20058;-78
2022/03/17 07:28:44;;;;;;;50.17;28.33;;;;;;;7.77;100.00;101589.00;5285997;28;20081;-77
2022/03/17 07:31:14;;;;;;;50.80;27.73;;;;;;;7.81;100.00;101582.88;5276581;28;20111;-79
2022/03/17 07:33:45;;;;;;;50.10;28.80;;;;;;;7.87;100.00;101584.59;5282465;28;20066;-78
2022/03/17 07:36:15;;;;;;;45.97;27.42;;;;;;;7.89;100.00;101594.06;5280199;28;20556;-78
2022/03/17 07:38:46;;;;;;;51.15;29.77;;;;;;;7.94;100.00;101584.50;5276008;28;20032;-78
2022/03/17 07:41:16;;;;;;;51.03;29.30;;;;;;;7.97;100.00;101592.28;5287129;28;20044;-78
2022/03/17 07:43:47;;;;;;;49.47;28.70;;;;;;;8.00;100.00;101583.56;5280087;28;20493;-78
2022/03/17 07:46:18;;;;;;;47.65;28.45;;;;;;;8.06;100.00;101602.59;5264717;28;20282;-78
2022/03/17 07:48:48;;;;;;;46.30;26.92;;;;;;;8.07;100.00;101600.88;5283871;28;20020;-78
2022/03/17 07:51:20;;;;;;;49.58;29.08;;;;;;;8.09;100.00;101604.34;5279073;28;20039;-79
2022/03/17 07:53:50;;;;;;;48.53;28.67;;;;;;;8.06;100.00;101610.41;5277694;28;20031;-78
2022/03/17 07:56:20;;;;;;;48.50;27.85;;;;;;;8.09;100.00;101610.41;5283894;28;20501;-79
2022/03/17 07:58:51;;;;;;;48.97;28.05;;;;;;;8.11;100.00;101607.78;5279850;28;20574;-78
2022/03/17 08:01:24;;;;;;;48.50;28.45;;;;;;;8.19;100.00;101609.47;5275664;28;20268;-78
2022/03/17 08:03:55;;;;;;;50.90;28.88;;;;;;;8.19;100.00;101621.63;5279503;28;20023;-78
2022/03/17 08:06:28;;;;;;;46.08;27.42;;;;;;;8.22;100.00;101627.66;5261407;28;20396;-78
2022/03/17 08:08:58;;;;;;;49.33;28.58;;;;;;;8.24;100.00;101623.28;5282029;28;20020;-78
2022/03/17 08:11:28;;;;;;;51.40;29.20;;;;;;;8.29;100.00;101631.06;5265158;28;20039;-78
2022/03/17 08:13:58;;;;;;;46.85;28.13;;;;;;;8.27;100.00;101630.22;5260628;28;20127;-78
2022/03/17 08:16:29;;;;;;;53.72;30.27;;;;;;;8.25;100.00;101624.19;5270958;28;20035;-78
2022/03/17 08:18:59;;;;;;;47.72;29.17;;;;;;;8.34;100.00;101631.88;5282125;28;20027;-78
2022/03/17 08:21:29;;;;;;;50.87;28.53;;;;;;;8.32;100.00;101633.66;5277573;28;20031;-78
2022/03/17 08:23:59;;;;;;;48.97;29.88;;;;;;;8.37;100.00;101632.72;5272352;28;20342;-78
2022/03/17 08:26:30;;;;;;;49.13;30.63;;;;;;;8.39;100.00;101633.56;5273221;28;20035;-78
2022/03/17 08:29:01;;;;;;;49.28;29.52;;;;;;;8.47;100.00;101641.31;5276677;28;20277;-78
2022/03/17 08:31:31;;;;;;;49.42;30.38;;;;;;;8.56;100.00;101649.06;5271818;28;20504;-78
2022/03/17 08:34:01;;;;;;;47.58;28.10;;;;;;;8.62;100.00;101649.84;5251674;28;20024;-78
2022/03/17 08:36:32;;;;;;;51.78;29.25;;;;;;;8.64;100.00;101642.88;5276407;28;20032;-78
2022/03/17 08:39:02;;;;;;;47.38;29.60;;;;;;;8.69;100.00;101650.66;5276243;28;20036;-78
2022/03/17 08:41:32;;;;;;;51.05;29.20;;;;;;;8.73;100.00;101647.97;5279992;28;20063;-78
2022/03/17 08:44:03;;;;;;;47.63;29.08;;;;;;;8.75;100.00;101653.19;5280595;28;20115;-78
2022/03/17 08:49:23;;;;;;;53.53;30.00;;;;;;;8.92;100.00;101665.13;5270781;28;20157;-77
2022/03/17 08:51:56;;;;;;;48.00;29.60;;;;;;;8.91;100.00;101666.00;5275874;28;20720;-77
2022/03/17 08:54:28;;;;;;;49.80;30.13;;;;;;;9.00;100.00;101667.66;5252256;28;20446;-78
2022/03/17 08:56:59;;;;;;;47.75;29.55;;;;;;;9.00;100.00;101667.66;5276565;28;20035;-78
2022/03/17 08:59:35;;;;;;;50.05;29.35;;;;;;;9.08;100.00;101666.69;5265104;28;20057;-77
2022/03/17 09:02:08;;;;;;;50.15;30.13;;;;;;;9.23;100.00;101671.72;5263640;28;20103;-78
2022/03/17 09:04:38;;;;;;;47.13;29.50;;;;;;;9.36;99.46;101657.63;5272012;28;20058;-78
2022/03/17 09:07:09;;;;;;;49.63;29.90;;;;;;;9.41;100.00;101661.03;5275361;28;20144;-77
2022/03/17 09:09:39;;;;;;;48.63;30.10;;;;;;;9.42;98.89;101662.75;5275541;28;20042;-77
2022/03/17 09:12:09;;;;;;;47.25;29.27;;;;;;;9.53;99.71;101666.09;5273826;28;20080;-77
2022/03/17 09:14:41;;;;;;;46.97;29.73;;;;;;;9.64;99.72;101669.44;5259981;28;20020;-77
2022/03/17 09:17:11;;;;;;;46.75;28.88;;;;;;;9.69;97.59;101678.03;5258814;28;20963;-78
2022/03/17 09:19:42;;;;;;;47.55;29.02;;;;;;;9.67;98.01;101674.59;5278367;28;20027;-77
2022/03/17 09:22:12;;;;;;;47.03;29.58;;;;;;;9.65;97.25;101677.22;5273058;28;20089;-77
2022/03/17 09:24:43;;;;;;;50.55;30.42;;;;;;;9.76;98.79;101687.50;5266116;28;20020;-78
2022/03/17 09:27:14;;;;;;;45.72;29.23;;;;;;;9.86;97.81;101699.53;5275496;28;20425;-78
2022/03/17 09:29:44;;;;;;;47.28;29.67;;;;;;;9.98;96.73;101686.31;5278529;28;20028;-78
2022/03/17 09:32:16;;;;;;;45.28;28.15;;;;;;;10.01;95.87;101686.25;5270373;28;20028;-78
2022/03/17 09:34:46;;;;;;;46.47;28.52;;;;;;;10.27;95.50;101681.50;5279104;28;20077;-78
2022/03/17 09:37:17;;;;;;;45.05;28.17;;;;;;;10.41;94.76;101677.78;5260812;28;20439;-77
2022/03/17 09:39:47;;;;;;;45.70;27.90;;;;;;;10.47;93.18;101676.78;5258588;28;20134;-78
2022/03/17 09:42:19;;;;;;;44.63;27.83;;;;;;;10.59;94.44;101676.59;5278851;28;20029;-78
2022/03/17 09:44:54;;;;;;;45.30;28.75;;;;;;;10.56;93.41;101687.09;5239511;28;1060673;-77
2022/03/17 09:47:28;;;;;;;49.22;28.83;;;;;;;10.53;94.89;101687.16;5266622;28;20088;-77
2022/03/17 09:50:00;;;;;;;48.40;29.00;;;;;;;10.41;94.78;101692.59;5276804;28;20043;-78
2022/03/17 09:52:32;;;;;;;48.13;29.60;;;;;;;10.48;96.86;101691.63;5268357;28;20035;-78
2022/03/17 09:55:04;;;;;;;47.90;28.60;;;;;;;10.40;95.78;101706.53;5272627;28;20024;-77
2022/03/17 09:57:34;;;;;;;48.25;29.83;;;;;;;10.44;97.09;101709.09;5273254;28;20398;-78
2022/03/17 10:00:06;;;;;;;46.00;28.55;;;;;;;10.39;98.29;101707.44;5270657;28;20020;-78
2022/03/17 10:02:37;;;;;;;45.25;28.55;;;;;;;10.47;98.84;101710.75;5267300;28;20062;-78
2022/03/17 10:05:11;;;;;;;48.03;29.42;;;;;;;10.47;98.95;101716.88;5276583;28;20068;-78
2022/03/17 10:07:41;;;;;;;44.30;28.70;;;;;;;10.64;98.51;101714.84;5279021;28;20145;-78
2022/03/17 10:10:12;;;;;;;48.15;30.27;;;;;;;10.80;99.16;101720.63;5277739;28;20071;-78
2022/03/17 10:12:42;;;;;;;46.45;28.15;;;;;;;10.83;98.02;101734.53;5279875;28;20519;-78
2022/03/17 10:15:19;;;;;;;44.53;25.85;;;;;;;10.53;97.72;101739.44;5278482;28;20122;-78
2022/03/17 10:17:49;;;;;;;38.65;26.08;;;;;;;10.56;96.94;101747.22;5280950;28;20047;-78
2022/03/17 10:20:28;;;;;;;36.30;23.73;;;;;;;10.53;97.83;101749.88;5259064;28;20036;-78
2022/03/17 10:23:01;;;;;;;35.05;23.65;;;;;;;10.52;95.71;101754.25;5267264;28;20020;-78
2022/03/17 10:25:34;;;;;;;34.25;23.67;;;;;;;10.43;96.43;101762.25;5270135;28;20027;-78
2022/03/17 10:28:04;;;;;;;36.05;23.98;;;;;;;10.40;98.14;101770.16;5278836;28;20027;-78
2022/03/17 10:30:35;;;;;;;35.08;22.67;;;;;;;10.35;98.93;101771.09;5276072;28;20027;-78
2022/03/17 10:33:11;;;;;;;37.13;23.80;;;;;;;10.39;100.00;101773.66;5265589;28;20028;-78
2022/03/17 10:35:49;;;;;;;;;;;;;;;10.35;100.00;101771.09;5260055;28;20032;-78
2022/03/17 10:38:25;;;;;;;37.15;25.05;;;;;;;10.23;100.00;101776.50;5274357;28;19988;-77
2022/03/17 10:41:03;;;;;;;39.45;25.10;;;;;;;10.17;100.00;101784.44;5272697;28;20028;-77
2022/03/17 10:43:34;;;;;;;41.15;25.48;;;;;;;9.85;100.00;101784.84;5281770;28;20358;-77
2022/03/17 10:46:12;;;;;;;38.10;25.17;;;;;;;9.76;100.00;101784.09;5281515;28;20043;-78
2022/03/17 10:48:59;;;;;;;38.65;24.30;;;;;;;9.83;100.00;101790.97;5279836;28;20119;-78
2022/03/17 10:51:41;;;;;;;39.28;23.73;;;;;;;9.78;100.00;101788.44;5276222;28;20085;-77
2022/03/17 10:54:18;;;;;;;38.95;26.08;;;;;;;9.63;100.00;101793.00;5269439;28;20020;-78
2022/03/17 10:57:11;;;;;;;36.00;24.63;;;;;;;9.51;100.00;101800.94;5276260;28;20051;-78
2022/03/17 10:59:47;;;;;;;38.03;25.00;;;;;;;9.42;100.00;101808.88;5276328;28;20543;-78
2022/03/17 11:02:18;;;;;;;36.95;24.92;;;;;;;9.34;100.00;101811.56;5266569;28;20431;-78
2022/03/17 11:04:49;;;;;;;37.85;25.13;;;;;;;9.23;100.00;101820.38;5274133;28;20027;-78
2022/03/17 11:07:21;;;;;;;39.13;26.20;;;;;;;9.27;100.00;101824.69;5275106;28;20023;-78
2022/03/17 11:09:51;;;;;;;42.40;26.50;;;;;;;9.10;100.00;101831.81;5270538;28;20106;-78
2022/03/17 11:12:22;;;;;;;39.57;27.10;;;;;;;8.98;100.00;101834.56;5278272;28;20115;-77
2022/03/17 11:14:55;;;;;;;41.50;26.50;;;;;;;9.01;100.00;101836.25;5274210;28;20319;-78
2022/03/17 11:17:38;;;;;;;44.25;27.83;;;;;;;8.92;100.00;101841.56;5277976;28;20385;-77
2022/03/17 11:20:11;;;;;;;43.60;27.35;;;;;;;8.95;100.00;101845.00;5276087;28;20032;-77
2022/03/17 11:22:44;;;;;;;44.35;27.42;;;;;;;8.95;100.00;101847.63;5269816;28;20032;-77
2022/03/17 11:25:28;;;;;;;41.45;26.52;;;;;;;8.92;100.00;101858.06;5272431;28;20042;-77
2022/03/17 11:28:01;;;;;;;42.67;29.42;;;;;;;8.86;100.00;101867.69;5270901;28;20031;-77
2022/03/17 11:30:46;;;;;;;47.05;29.67;;;;;;;8.79;100.00;101876.41;5253019;28;20028;-77
2022/03/17 11:33:44;;;;;;;46.13;28.65;;;;;;;8.77;100.00;101876.44;5275065;28;20028;-77
2022/03/17 11:36:21;;;;;;;45.80;28.60;;;;;;;8.87;100.00;101880.69;5275769;28;20438;-78
2022/03/17 11:39:09;;;;;;;45.95;29.77;;;;;;;8.85;100.00;101887.66;5251505;28;20077;-77